createdAt,value
2018-06-21T00:01:40.739Z,5.67
2018-06-21T00:04:10.006Z,5.50
2018-06-21T00:06:39.336Z,5.60
2018-06-21T00:09:09.505Z,5.10
2018-06-21T00:11:39.373Z,6.03
2018-06-21T00:14:08.933Z,5.57
2018-06-21T00:16:38.217Z,5.50
2018-06-21T00:19:07.494Z,5.40
2018-06-21T00:21:36.754Z,5.33
2018-06-21T00:24:06.041Z,5.00
2018-06-21T00:26:35.338Z,6.17
2018-06-21T00:29:04.720Z,5.10
2018-06-21T00:31:33.978Z,5.97
2018-06-21T00:34:03.265Z,5.57
2018-06-21T00:36:32.597Z,5.03
2018-06-21T00:39:01.866Z,5.53
2018-06-21T00:41:31.126Z,4.93
2018-06-21T00:44:00.406Z,5.00
2018-06-21T00:46:29.873Z,5.20
2018-06-21T00:48:59.202Z,5.40
2018-06-21T00:51:28.601Z,5.13
2018-06-21T00:53:58.284Z,5.23
2018-06-21T00:56:27.550Z,5.07
2018-06-21T00:58:56.853Z,5.37
2018-06-21T01:01:26.125Z,5.07
2018-06-21T01:03:55.590Z,4.53
2018-06-21T01:06:24.918Z,5.10
2018-06-21T01:08:54.288Z,4.63
2018-06-21T01:11:23.593Z,5.40
2018-06-21T01:13:52.872Z,5.07
2018-06-21T01:16:22.129Z,5.93
2018-06-21T01:18:51.410Z,5.43
2018-06-21T01:21:20.686Z,5.17
2018-06-21T01:23:49.981Z,5.67
2018-06-21T01:26:19.345Z,5.27
2018-06-21T01:28:48.656Z,5.60
2018-06-21T01:31:17.954Z,5.47
2018-06-21T01:33:47.519Z,5.67
2018-06-21T01:36:19.813Z,5.83
2018-06-21T01:38:49.205Z,5.60
2018-06-21T01:41:18.496Z,5.00
2018-06-21T01:43:47.775Z,5.20
2018-06-21T01:46:17.133Z,5.17
2018-06-21T01:48:46.435Z,6.30
2018-06-21T01:51:15.775Z,5.70
2018-06-21T01:53:45.121Z,5.60
2018-06-21T01:56:14.401Z,5.90
2018-06-21T01:58:43.683Z,5.73
2018-06-21T02:01:12.958Z,5.10
2018-06-21T02:03:42.357Z,6.67
2018-06-21T02:06:11.635Z,5.43
2018-06-21T02:08:40.916Z,5.43
2018-06-21T02:11:10.298Z,5.90
2018-06-21T02:13:39.600Z,5.53
2018-06-21T02:16:08.914Z,6.43
2018-06-21T02:18:38.209Z,5.63
2018-06-21T02:21:07.561Z,5.80
2018-06-21T02:23:36.893Z,6.73
2018-06-21T02:26:06.378Z,5.87
2018-06-21T02:28:35.690Z,7.10
2018-06-21T02:31:05.054Z,6.30
2018-06-21T02:33:34.346Z,6.13
2018-06-21T02:36:03.629Z,6.90
2018-06-21T02:38:33.011Z,6.80
2018-06-21T02:41:02.363Z,6.60
2018-06-21T02:43:32.435Z,6.77
2018-06-21T02:46:01.805Z,5.87
2018-06-21T02:48:31.126Z,6.57
2018-06-21T02:51:00.393Z,6.87
2018-06-21T02:53:29.727Z,6.30
2018-06-21T02:55:59.098Z,7.37
2018-06-21T02:58:28.466Z,6.50
2018-06-21T03:00:57.770Z,6.57
2018-06-21T03:03:27.050Z,6.90
2018-06-21T03:05:56.352Z,6.57
2018-06-21T03:08:25.637Z,7.47
2018-06-21T03:10:55.052Z,7.20
2018-06-21T03:13:24.377Z,8.40
2018-06-21T03:15:53.654Z,8.53
2018-06-21T03:18:22.965Z,8.63
2018-06-21T03:20:52.292Z,10.03
2018-06-21T03:23:21.661Z,10.60
2018-06-21T03:25:50.941Z,10.50
2018-06-21T03:28:20.306Z,10.97
2018-06-21T03:30:49.612Z,11.60
2018-06-21T03:33:18.904Z,11.87
2018-06-21T03:35:48.221Z,12.23
2018-06-21T03:38:17.568Z,12.53
2018-06-21T03:40:46.924Z,13.27
2018-06-21T03:43:16.288Z,12.77
2018-06-21T03:45:45.670Z,12.03
2018-06-21T03:48:14.986Z,13.57
2018-06-21T03:50:44.355Z,12.60
2018-06-21T03:53:13.749Z,12.67
2018-06-21T03:55:43.052Z,13.60
2018-06-21T03:58:12.350Z,12.63
2018-06-21T04:00:41.640Z,13.10
2018-06-21T04:03:11.081Z,12.47
2018-06-21T04:05:40.453Z,13.97
2018-06-21T04:08:09.765Z,14.03
2018-06-21T04:10:39.152Z,16.00
2018-06-21T04:13:08.489Z,15.70
2018-06-21T04:15:37.787Z,13.60
2018-06-21T04:18:07.208Z,15.53
2018-06-21T04:20:38.158Z,16.00
2018-06-21T04:23:07.886Z,15.83
2018-06-21T04:25:37.486Z,15.70
2018-06-21T04:28:06.904Z,16.77
2018-06-21T04:30:36.194Z,15.60
2018-06-21T04:33:05.501Z,15.40
2018-06-21T04:35:35.444Z,12.90
2018-06-21T04:38:04.814Z,14.63
2018-06-21T04:40:34.116Z,14.47
2018-06-21T04:43:03.427Z,13.60
2018-06-21T04:45:32.732Z,14.10
2018-06-21T04:48:02.073Z,12.50
2018-06-21T04:50:31.403Z,13.60
2018-06-21T04:53:00.746Z,12.90
2018-06-21T04:55:30.095Z,12.50
2018-06-21T04:57:59.446Z,12.60
2018-06-21T05:00:29.021Z,11.67
2018-06-21T05:02:59.717Z,11.17
2018-06-21T05:05:29.082Z,11.13
2018-06-21T05:07:58.469Z,10.50
2018-06-21T05:10:27.783Z,11.10
2018-06-21T05:12:57.157Z,10.50
2018-06-21T05:15:26.458Z,9.70
2018-06-21T05:17:55.786Z,9.97
2018-06-21T05:20:25.205Z,9.63
2018-06-21T05:22:54.508Z,10.50
2018-06-21T05:25:23.809Z,10.50
2018-06-21T05:27:53.141Z,9.47
2018-06-21T05:30:22.445Z,11.27
2018-06-21T05:32:51.919Z,10.83
2018-06-21T05:35:21.217Z,11.27
2018-06-21T05:37:50.849Z,9.37
2018-06-21T05:40:29.081Z,10.07
2018-06-21T05:42:58.607Z,10.27
2018-06-21T05:45:27.972Z,9.23
2018-06-21T05:47:58.673Z,8.20
2018-06-21T05:50:29.590Z,8.00
2018-06-21T05:52:59.432Z,6.90
2018-06-21T05:55:29.559Z,6.17
2018-06-21T05:57:59.165Z,6.10
2018-06-21T06:00:28.819Z,5.00
2018-06-21T06:02:58.128Z,5.00
2018-06-21T06:05:27.425Z,4.10
2018-06-21T06:07:57.032Z,4.37
2018-06-21T06:10:26.476Z,4.33
2018-06-21T06:12:55.771Z,4.63
2018-06-21T06:15:25.077Z,4.30
2018-06-21T06:17:54.454Z,3.63
2018-06-21T06:20:23.925Z,3.63
2018-06-21T06:22:53.226Z,3.70
2018-06-21T06:25:22.619Z,3.73
2018-06-21T06:27:51.921Z,3.40
2018-06-21T06:30:21.243Z,3.20
2018-06-21T06:32:50.514Z,2.83
2018-06-21T06:35:19.805Z,2.60
2018-06-21T06:37:49.201Z,2.60
2018-06-21T06:40:18.537Z,2.87
2018-06-21T06:42:47.960Z,2.30
2018-06-21T06:45:18.089Z,2.40
2018-06-21T06:47:47.502Z,2.40
2018-06-21T06:50:17.096Z,2.70
2018-06-21T06:52:50.496Z,3.17
2018-06-21T06:55:20.096Z,2.97
2018-06-21T06:57:49.478Z,3.13
2018-06-21T07:00:19.067Z,3.70
2018-06-21T07:02:48.482Z,4.40
2018-06-21T07:05:18.020Z,5.23
2018-06-21T07:07:47.532Z,6.37
2018-06-21T07:10:17.094Z,5.40
2018-06-21T07:12:46.737Z,6.47
2018-06-21T07:15:16.245Z,6.83
2018-06-21T07:17:45.615Z,6.83
2018-06-21T07:20:15.016Z,8.80
2018-06-21T07:22:44.524Z,10.00
2018-06-21T07:25:13.946Z,10.20
2018-06-21T07:27:43.308Z,11.20
2018-06-21T07:30:12.754Z,12.27
2018-06-21T07:32:42.203Z,13.40
2018-06-21T07:35:11.747Z,14.70
2018-06-21T07:37:41.191Z,15.70
2018-06-21T07:40:10.846Z,16.17
2018-06-21T07:42:40.227Z,16.80
2018-06-21T07:45:09.799Z,17.00
2018-06-21T07:47:39.317Z,19.50
2018-06-21T07:50:08.828Z,20.60
2018-06-21T07:52:38.314Z,19.40
2018-06-21T07:55:07.830Z,20.10
2018-06-21T07:57:37.375Z,16.67
2018-06-21T08:00:06.915Z,15.00
2018-06-21T08:02:36.657Z,12.73
2018-06-21T08:05:06.143Z,11.33
2018-06-21T08:07:35.691Z,10.40
2018-06-21T08:10:05.168Z,12.83
2018-06-21T08:12:34.662Z,9.53
2018-06-21T08:15:04.337Z,10.23
2018-06-21T08:17:33.837Z,9.60
2018-06-21T08:20:03.494Z,9.00
2018-06-21T08:22:32.925Z,11.30
2018-06-21T08:25:03.593Z,9.40
2018-06-21T08:27:33.096Z,6.67
2018-06-21T08:30:02.697Z,3.73
2018-06-21T08:32:32.198Z,4.13
2018-06-21T08:35:01.676Z,4.60
2018-06-21T08:37:31.198Z,4.20
2018-06-21T08:40:00.702Z,5.03
2018-06-21T08:42:30.369Z,5.97
2018-06-21T08:44:59.843Z,5.80
2018-06-21T08:47:29.373Z,6.40
2018-06-21T08:49:58.868Z,6.37
2018-06-21T08:52:28.321Z,7.77
2018-06-21T08:54:57.790Z,7.73
2018-06-21T08:57:27.497Z,7.70
2018-06-21T08:59:57.026Z,7.30
2018-06-21T09:02:26.696Z,8.37
2018-06-21T09:04:56.083Z,8.43
2018-06-21T09:07:25.800Z,10.53
2018-06-21T09:09:56.307Z,12.30
2018-06-21T09:12:29.926Z,13.00
2018-06-21T09:14:59.420Z,12.63
2018-06-21T09:17:29.160Z,14.30
2018-06-21T09:19:58.570Z,15.00
2018-06-21T09:22:28.157Z,15.47
2018-06-21T09:24:57.565Z,15.17
2018-06-21T09:27:27.153Z,15.47
2018-06-21T09:29:57.018Z,13.77
2018-06-21T09:32:27.164Z,14.30
2018-06-21T09:34:56.675Z,13.97
2018-06-21T09:37:31.605Z,15.27
2018-06-21T09:40:06.576Z,15.27
2018-06-21T09:42:41.269Z,15.30
2018-06-21T09:45:10.716Z,14.80
2018-06-21T09:47:45.493Z,15.93
2018-06-21T09:50:17.432Z,16.23
2018-06-21T09:52:47.183Z,16.03
2018-06-21T09:55:16.648Z,17.47
2018-06-21T09:57:46.235Z,17.00
2018-06-21T10:01:23.881Z,10.33
2018-06-21T10:03:53.485Z,10.20
2018-06-21T10:06:25.144Z,8.60
2018-06-21T10:08:54.669Z,8.73
2018-06-21T10:11:24.201Z,8.60
2018-06-21T10:13:53.689Z,7.50
2018-06-21T10:16:23.373Z,6.67
2018-06-21T10:18:52.915Z,7.73
2018-06-21T10:21:22.534Z,7.30
2018-06-21T10:23:51.941Z,7.50
2018-06-21T10:26:22.019Z,8.03
2018-06-21T10:28:51.460Z,9.17
2018-06-21T10:31:20.900Z,10.97
2018-06-21T10:33:50.427Z,10.57
2018-06-21T10:36:19.937Z,11.67
2018-06-21T10:38:49.368Z,11.00
2018-06-21T10:41:18.940Z,11.53
2018-06-21T10:43:48.371Z,10.07
2018-06-21T10:46:18.703Z,9.57
2018-06-21T10:48:49.338Z,7.00
2018-06-21T10:51:20.272Z,5.97
2018-06-21T10:53:50.616Z,6.20
2018-06-21T10:56:20.269Z,5.63
2018-06-21T10:58:50.695Z,4.80
2018-06-21T11:01:22.467Z,3.60
2018-06-21T11:03:52.882Z,4.13
2018-06-21T11:06:23.684Z,4.27
2018-06-21T11:08:53.349Z,4.33
2018-06-21T11:11:28.461Z,4.20
2018-06-21T11:13:57.999Z,4.10
2018-06-21T11:16:27.752Z,3.13
2018-06-21T11:18:57.657Z,3.07
2018-06-21T11:21:27.229Z,2.33
2018-06-21T11:23:56.851Z,2.77
2018-06-21T11:26:26.412Z,3.40
2018-06-21T11:28:56.547Z,2.70
2018-06-21T11:31:27.106Z,2.70
2018-06-21T11:33:57.509Z,2.60
2018-06-21T11:36:27.328Z,2.97
2018-06-21T11:38:57.497Z,2.67
2018-06-21T11:41:28.317Z,2.27
2018-06-21T11:44:05.161Z,3.03
2018-06-21T11:46:34.743Z,2.53
2018-06-21T11:49:04.610Z,3.03
2018-06-21T11:51:34.450Z,2.50
2018-06-21T11:54:04.002Z,2.10
2018-06-21T11:56:34.288Z,2.23
2018-06-21T11:59:08.572Z,2.50
2018-06-21T12:01:44.739Z,2.70
2018-06-21T12:04:21.949Z,2.60
2018-06-21T12:06:52.585Z,2.30
2018-06-21T12:09:21.944Z,2.67
2018-06-21T12:11:53.397Z,2.70
2018-06-21T12:14:25.379Z,2.60
2018-06-21T12:16:55.106Z,2.63
2018-06-21T12:19:24.485Z,2.47
2018-06-21T12:21:53.917Z,2.43
2018-06-21T12:24:23.405Z,3.47
2018-06-21T12:26:52.894Z,3.00
2018-06-21T12:29:22.331Z,3.50
2018-06-21T12:31:52.354Z,3.00
2018-06-21T12:34:22.023Z,2.50
2018-06-21T12:36:51.590Z,2.97
2018-06-21T12:39:21.301Z,2.30
2018-06-21T12:41:50.768Z,1.93
2018-06-21T12:44:20.323Z,2.57
2018-06-21T12:46:49.720Z,2.23
2018-06-21T12:49:19.343Z,2.03
2018-06-21T12:51:49.178Z,2.40
2018-06-21T12:54:18.836Z,2.90
2018-06-21T12:56:48.447Z,2.47
2018-06-21T12:59:18.151Z,2.17
2018-06-21T13:01:47.967Z,1.90
2018-06-21T13:04:17.418Z,2.57
2018-06-21T13:06:47.113Z,1.77
2018-06-21T13:11:33.731Z,1.70
2018-06-21T13:14:14.323Z,1.70
2018-06-21T13:16:44.348Z,1.93
2018-06-21T13:19:14.101Z,1.97
2018-06-21T13:21:43.630Z,2.13
2018-06-21T13:24:13.175Z,1.93
2018-06-21T13:26:42.721Z,1.60
2018-06-21T13:29:12.403Z,1.50
2018-06-21T13:31:42.275Z,1.40
2018-06-21T13:34:11.966Z,1.50
2018-06-21T13:36:41.579Z,1.40
2018-06-21T13:39:11.448Z,2.20
2018-06-21T13:41:41.307Z,1.70
2018-06-21T13:44:11.444Z,1.53
2018-06-21T13:46:44.312Z,1.37
2018-06-21T13:49:14.341Z,1.30
2018-06-21T13:51:43.956Z,1.30
2018-06-21T13:54:14.376Z,1.70
2018-06-21T13:56:44.898Z,1.47
2018-06-21T13:59:16.195Z,1.30
2018-06-21T14:01:48.237Z,1.73
2018-06-21T14:04:17.925Z,1.70
2018-06-21T14:06:47.617Z,1.60
2018-06-21T14:09:17.326Z,1.57
2018-06-21T14:11:47.931Z,1.80
2018-06-21T14:14:17.691Z,1.70
2018-06-21T14:16:49.735Z,1.47
2018-06-21T14:19:19.679Z,1.27
2018-06-21T14:21:49.452Z,1.50
2018-06-21T14:24:19.357Z,1.20
2018-06-21T14:26:49.242Z,1.73
2018-06-21T14:29:19.237Z,1.47
2018-06-21T14:31:48.819Z,1.47
2018-06-21T14:34:18.568Z,1.70
2018-06-21T14:36:48.397Z,1.90
2018-06-21T14:39:18.899Z,1.67
2018-06-21T14:41:49.975Z,2.00
2018-06-21T14:44:20.391Z,1.50
2018-06-21T14:46:52.035Z,1.67
2018-06-21T14:49:23.050Z,1.80
2018-06-21T14:51:57.762Z,1.70
2018-06-21T14:54:30.521Z,1.30
2018-06-21T14:57:00.552Z,1.43
2018-06-21T14:59:31.844Z,1.77
2018-06-21T15:02:01.864Z,1.87
2018-06-21T15:04:32.690Z,1.23
2018-06-21T15:07:04.696Z,1.30
2018-06-21T15:09:35.267Z,1.50
2018-06-21T15:12:05.061Z,1.43
2018-06-21T15:14:34.946Z,1.23
2018-06-21T15:17:04.566Z,1.33
2018-06-21T15:19:34.100Z,1.60
2018-06-21T15:22:03.842Z,1.83
2018-06-21T15:24:34.669Z,1.37
2018-06-21T15:27:05.075Z,1.27
2018-06-21T15:29:35.834Z,1.70
2018-06-21T15:32:06.391Z,1.43
2018-06-21T15:34:36.616Z,1.33
2018-06-21T15:37:06.724Z,1.83
2018-06-21T15:39:36.862Z,1.17
2018-06-21T15:42:06.668Z,1.60
2018-06-21T15:44:36.944Z,1.10
2018-06-21T15:47:07.170Z,1.53
2018-06-21T15:49:36.976Z,1.97
2018-06-21T15:52:09.887Z,1.80
2018-06-21T15:54:40.705Z,1.47
2018-06-21T15:57:11.082Z,1.40
2018-06-21T15:59:41.421Z,1.80
2018-06-21T16:02:12.802Z,1.93
2018-06-21T16:04:43.128Z,1.30
2018-06-21T16:07:13.852Z,1.37
2018-06-21T16:09:48.128Z,1.57
2018-06-21T16:12:19.222Z,1.50
2018-06-21T16:14:49.269Z,1.20
2018-06-21T16:17:18.889Z,1.30
2018-06-21T16:19:48.698Z,1.40
2018-06-21T16:22:18.312Z,1.50
2018-06-21T16:24:47.866Z,1.40
2018-06-21T16:27:17.369Z,0.97
2018-06-21T16:29:47.318Z,1.73
2018-06-21T16:32:16.969Z,2.10
2018-06-21T16:34:47.809Z,1.50
2018-06-21T16:37:17.667Z,1.40
2018-06-21T16:39:47.046Z,1.40
2018-06-21T16:42:16.984Z,1.13
2018-06-21T16:44:46.731Z,1.20
2018-06-21T16:47:16.834Z,1.60
2018-06-21T16:49:46.892Z,1.47
2018-06-21T16:52:18.866Z,1.30
2018-06-21T16:54:53.453Z,1.53
2018-06-21T16:57:24.369Z,1.03
2018-06-21T16:59:56.365Z,1.47
2018-06-21T17:02:53.429Z,2.20
2018-06-21T17:05:23.949Z,1.50
2018-06-21T17:07:53.555Z,1.60
2018-06-21T17:10:23.258Z,1.47
2018-06-21T17:12:55.252Z,1.10
2018-06-21T17:15:24.777Z,1.40
2018-06-21T17:17:55.982Z,1.80
2018-06-21T17:20:26.354Z,1.60
2018-06-21T17:22:58.708Z,1.27
2018-06-21T17:25:31.270Z,1.40
2018-06-21T17:28:00.811Z,1.50
2018-06-21T17:30:31.696Z,1.10
2018-06-21T17:33:02.512Z,1.10
2018-06-21T17:35:33.203Z,1.27
2018-06-21T17:38:03.085Z,1.60
2018-06-21T17:40:32.849Z,1.10
2018-06-21T17:43:03.038Z,1.37
2018-06-21T17:45:32.958Z,1.23
2018-06-21T17:48:03.104Z,1.17
2018-06-21T17:50:33.149Z,1.70
2018-06-21T17:53:02.609Z,0.97
2018-06-21T17:55:33.745Z,1.67
2018-06-21T17:58:03.308Z,1.53
2018-06-21T18:00:33.331Z,1.43
2018-06-21T18:03:03.030Z,1.20
2018-06-21T18:05:34.075Z,1.10
2018-06-21T18:08:03.527Z,1.10
2018-06-21T18:10:33.618Z,0.97
2018-06-21T18:13:06.065Z,1.13
2018-06-21T18:15:36.219Z,2.57
2018-06-21T18:18:06.399Z,1.07
2018-06-21T18:20:36.785Z,1.37
2018-06-21T18:23:07.412Z,0.93
2018-06-21T18:25:37.856Z,1.30
2018-06-21T18:28:07.467Z,0.93
2018-06-21T18:30:42.858Z,1.20
2018-06-21T18:33:18.558Z,1.50
2018-06-21T18:35:51.964Z,1.00
2018-06-21T18:38:21.672Z,1.43
2018-06-21T18:40:51.327Z,0.97
2018-06-21T18:43:21.769Z,0.87
2018-06-21T18:45:52.849Z,0.90
2018-06-21T18:48:23.093Z,1.10
2018-06-21T18:50:55.059Z,1.10
2018-06-21T18:53:24.725Z,0.73
2018-06-21T18:55:54.829Z,0.70
2018-06-21T18:58:24.326Z,0.83
2018-06-21T19:00:53.920Z,0.90
2018-06-21T19:03:23.464Z,0.90
2018-06-21T19:05:53.093Z,0.73
2018-06-21T19:08:28.322Z,0.97
2018-06-21T19:11:04.252Z,0.90
2018-06-21T19:13:33.858Z,0.93
2018-06-21T19:16:04.917Z,0.80
2018-06-21T19:18:39.919Z,0.87
2018-06-21T19:21:09.682Z,0.73
2018-06-21T19:23:39.311Z,1.30
2018-06-21T19:26:11.000Z,1.00
2018-06-21T19:28:43.078Z,1.17
2018-06-21T19:31:12.950Z,0.97
2018-06-21T19:33:43.222Z,1.00
2018-06-21T19:36:15.401Z,1.30
2018-06-21T19:38:45.275Z,0.90
2018-06-21T19:41:17.132Z,1.00
2018-06-21T19:43:46.754Z,1.20
2018-06-21T19:46:16.630Z,1.30
2018-06-21T19:48:47.915Z,1.20
2018-06-21T19:51:17.639Z,0.93
2018-06-21T19:53:47.560Z,1.20
2018-06-21T19:56:19.131Z,1.57
2018-06-21T19:58:51.885Z,2.47
2018-06-21T20:01:21.680Z,1.40
2018-06-21T20:03:51.747Z,1.20
2018-06-21T20:06:27.126Z,1.60
2018-06-21T20:09:00.517Z,1.70
2018-06-21T20:11:37.289Z,1.13
2018-06-21T20:14:11.258Z,1.60
2018-06-21T20:16:43.820Z,2.03
2018-06-21T20:19:23.712Z,1.90
2018-06-21T20:21:53.979Z,3.30
2018-06-21T20:24:24.253Z,1.50
2018-06-21T20:26:54.146Z,2.10
2018-06-21T20:29:24.090Z,2.33
2018-06-21T20:31:54.855Z,3.20
2018-06-21T20:34:30.884Z,1.93
2018-06-21T20:37:03.719Z,2.13
2018-06-21T20:39:35.729Z,1.70
2018-06-21T20:42:05.880Z,1.43
2018-06-21T20:44:36.116Z,1.80
2018-06-21T20:47:06.766Z,1.67
2018-06-21T20:49:37.422Z,1.70
2018-06-21T20:52:11.217Z,2.20
2018-06-21T20:54:44.396Z,2.23
2018-06-21T20:57:15.357Z,2.07
2018-06-21T20:59:49.191Z,2.07
2018-06-21T21:02:20.224Z,2.77
2018-06-21T21:05:15.321Z,2.10
2018-06-21T21:07:47.299Z,2.10
2018-06-21T21:10:18.626Z,2.70
2018-06-21T21:12:49.905Z,2.10
2018-06-21T21:15:20.832Z,2.80
2018-06-21T21:17:51.296Z,2.70
2018-06-21T21:20:23.346Z,1.70
2018-06-21T21:23:01.631Z,2.07
2018-06-21T21:25:32.253Z,2.00
2018-06-21T21:28:02.291Z,2.20
2018-06-21T21:30:32.900Z,2.30
2018-06-21T21:33:04.588Z,1.90
2018-06-21T21:35:34.131Z,2.33
2018-06-21T21:38:03.803Z,1.63
2018-06-21T21:40:35.455Z,2.00
2018-06-21T21:43:05.007Z,2.67
2018-06-21T21:45:35.114Z,1.90
2018-06-21T21:48:05.386Z,2.37
2018-06-21T21:50:35.720Z,2.30
2018-06-21T21:53:07.200Z,1.97
2018-06-21T21:55:36.653Z,2.27
2018-06-21T21:58:06.039Z,1.57
2018-06-21T22:00:45.697Z,1.80
2018-06-21T22:03:15.120Z,2.00
2018-06-21T22:05:44.980Z,2.40
2018-06-21T22:08:15.587Z,1.73
2018-06-21T22:10:45.914Z,1.80
2018-06-21T22:13:15.928Z,1.93
2018-06-21T22:15:45.608Z,1.80
2018-06-21T22:18:15.040Z,1.93
2018-06-21T22:20:44.458Z,2.13
2018-06-21T22:23:13.895Z,1.80
2018-06-21T22:25:43.425Z,2.10
2018-06-21T22:28:12.862Z,2.13
2018-06-21T22:30:42.373Z,2.87
2018-06-21T22:33:11.915Z,2.53
2018-06-21T22:35:41.433Z,2.87
2018-06-21T22:38:10.810Z,1.90
2018-06-21T22:40:40.252Z,2.60
2018-06-21T22:43:09.616Z,1.77
2018-06-21T22:45:39.942Z,2.27
2018-06-21T22:48:09.588Z,2.20
2018-06-21T22:50:39.253Z,1.70
2018-06-21T22:53:08.786Z,2.07
2018-06-21T22:55:38.292Z,2.23
2018-06-21T22:58:07.952Z,2.07
2018-06-21T23:00:37.672Z,2.37
2018-06-21T23:03:07.154Z,2.63
2018-06-21T23:05:36.743Z,2.30
2018-06-21T23:08:06.219Z,2.43
2018-06-21T23:10:35.638Z,1.60
2018-06-21T23:13:05.122Z,2.70
2018-06-21T23:15:34.593Z,1.90
2018-06-21T23:18:04.215Z,2.30
2018-06-21T23:20:33.774Z,2.33
2018-06-21T23:23:03.201Z,2.40
2018-06-21T23:25:32.550Z,2.70
2018-06-21T23:28:01.911Z,2.23
2018-06-21T23:30:31.482Z,3.87
2018-06-21T23:33:00.893Z,2.30
2018-06-21T23:35:30.322Z,2.23
2018-06-21T23:37:59.669Z,2.60
2018-06-21T23:40:29.213Z,2.60
2018-06-21T23:42:58.598Z,2.50
2018-06-21T23:45:27.981Z,2.13
2018-06-21T23:47:57.381Z,2.73
2018-06-21T23:50:26.709Z,3.53
2018-06-21T23:52:56.078Z,3.03
2018-06-21T23:55:25.531Z,4.27
2018-06-21T23:57:54.858Z,4.10
